Domov               UVHVVR             MKGP            O straneh              
ZDRAVSTVENO VARSTVO RASTLIN
  MREŽA AGROMET. POSTAJ
 ► PROGNOSTIČNA OBVESTILA
AGROMETEOROLOŠKI PODATKI -
ARSO
OBVLADOVANJE TVEGANJ ZARADI
NEUGODNIH VREMENSKIH RAZMER
  ► NARAVNE NESREČE
  ► SUŠA/MOČA
  ► NAMAKANJE
  ► ŽLED (gozdarstvo)
KARTOGRAFSKI PRIKAZI
SPLETNE POVEZAVE
PROJEKTI IN PUBLIKACIJE

AGROMETEOROLOŠKA MREŽA: VREMENSKE POSTAJE IN FENOLOŠKA OPAZOVANJA

Pregled podatkov za lokacijo Zavrhek, meteorološka postaja 37907

Pregled senzorjev na lokaciji

ID Ime Zadnja
vrednost
Datum
zadnje
spremembe
Tip
senzorja
1991 Padavine (mm) 0 mm 18.3.2019 22:59 Rain-O-Matic
1990 Relativna vlaga 2 m (% RH) 70,99 % RH 18.3.2019 23:00 50YA
1989 Temperatura 2 m (°C) 4,25 °C 18.3.2019 23:00 50YA

Pregled podatkov zadnjih 24 ur

Zap.
št.
Datum in čas Zavrhek
Padavine Relativna
vlaga
2
m
Temperatura
2
m
1 18.3.2019 23:00
2 18.3.2019 22:30
3 18.3.2019 22:00 0 71 4,2
4 18.3.2019 21:30 0 75,5 3,8
5 18.3.2019 21:00 0 75,2 4
6 18.3.2019 20:30 0 76,8 3,8
7 18.3.2019 20:00 0 78,9 3,6
8 18.3.2019 19:30 0 79,9 3,5
9 18.3.2019 19:00 0 81,5 3,4
10 18.3.2019 18:30 0 82,9 3,2
11 18.3.2019 18:00 0,2 82,7 3,2
12 18.3.2019 17:30 0 82,9 3,3
13 18.3.2019 17:00 0 82,4 3,4
14 18.3.2019 16:30 0 85 3,2
15 18.3.2019 16:00 0,2 88,2 2,9
16 18.3.2019 15:30 0,2 90,6 2,6
17 18.3.2019 15:00 1 89,2 2,5
18 18.3.2019 14:30 0,6 86,5 2,9
19 18.3.2019 14:00 0,6 88,2 2,9
20 18.3.2019 13:30 0,2 89,1 2,7
21 18.3.2019 13:00 1,4 89,9 2,4
22 18.3.2019 12:30 0,8 87,9 2,7
23 18.3.2019 12:00 0,8 82,1 3,8
24 18.3.2019 11:30 0,6 80,2 4,4
25 18.3.2019 11:00 0 73,1 5,7
26 18.3.2019 10:30 0 66,2 10,4
27 18.3.2019 10:00 0 64,9 12,6
28 18.3.2019 09:30 0 67 12,1
29 18.3.2019 09:00 0 68,8 11,5
30 18.3.2019 08:30 0 69,5 11,4
31 18.3.2019 08:00 0 72,7 10,8
32 18.3.2019 07:30 0 75,5 10,2
33 18.3.2019 07:00 0 78,8 9,6
34 18.3.2019 06:30 0 75,3 10,2
35 18.3.2019 06:00 0 74,4 10,4
36 18.3.2019 05:30 0 74,9 10,4
37 18.3.2019 05:00 0 74,2 10,3
38 18.3.2019 04:30 0 72,9 10,6
39 18.3.2019 04:00 0 74,8 10,6
40 18.3.2019 03:30 0 77,8 10,6
41 18.3.2019 03:00 0 76,8 10,9
42 18.3.2019 02:30 0 77,4 11
43 18.3.2019 02:00 0 79,9 10,9
44 18.3.2019 01:30 0 79,7 11
45 18.3.2019 01:00 0 77,9 11
46 18.3.2019 00:30 0 77,2 11,1
47 18.3.2019 00:00 0 76,6 11,1
48 17.3.2019 23:30 0 75,9 11,1
© 2011 Ministrstvo za kmetijstvo, gozdarstvo in prehrano. Vse pravice pridržane.